Time;durP1;ratioP1;P1;durP2;ratioP2;P2;SDS_P1;SDS_P2;PMS_P1;PMS_P2;Temp;Humidity;BMP_temperature;BMP_pressure;BME280_temperature;BME280_humidity;BME280_pressure;Samples;Min_cycle;Max_cycle;Signal;HPM_P1;HPM_P2
2022/06/08 00:00:59;;;;;;;;;;;15.10;99.90;;;;;;4890039;29;19916;-58
2022/06/08 00:03:27;;;;;;;;;;;15.20;99.90;;;;;;4891165;29;19922;-58
2022/06/08 00:05:53;;;;;;;;;;;15.30;99.90;;;;;;4888045;29;19933;-57
2022/06/08 00:08:19;;;;;;;;;;;15.20;99.90;;;;;;4886518;29;20006;-58
2022/06/08 00:10:44;;;;;;;;;;;15.30;99.90;;;;;;4890702;29;20431;-58
2022/06/08 00:13:10;;;;;;;;;;;15.30;99.90;;;;;;4889030;29;19958;-58
2022/06/08 00:15:35;;;;;;;;;;;15.30;99.90;;;;;;4890516;29;20002;-58
2022/06/08 00:18:02;;;;;;;;;;;15.30;99.90;;;;;;4889717;29;19911;-58
2022/06/08 00:20:27;;;;;;;;;;;15.20;99.90;;;;;;4890697;29;19911;-58
2022/06/08 00:22:53;;;;;;;;;;;15.20;99.90;;;;;;4890406;29;19931;-57
2022/06/08 00:25:19;;;;;;;;;;;15.30;99.90;;;;;;4891611;29;19915;-58
2022/06/08 00:27:44;;;;;;;;;;;15.40;99.90;;;;;;4893835;29;19967;-58
2022/06/08 00:30:11;;;;;;;;;;;15.20;99.90;;;;;;4895660;29;19938;-58
2022/06/08 00:32:36;;;;;;;;;;;15.20;99.90;;;;;;4896678;29;20530;-58
2022/06/08 00:35:02;;;;;;;;;;;15.20;99.90;;;;;;4891425;29;19967;-57
2022/06/08 00:37:28;;;;;;;;;;;15.20;99.90;;;;;;4893857;29;19912;-58
2022/06/08 00:39:54;;;;;;;;;;;15.10;99.90;;;;;;4894893;29;19911;-58
2022/06/08 00:42:20;;;;;;;;;;;15.10;99.90;;;;;;4894032;29;19922;-58
2022/06/08 00:44:50;;;;;;;;;;;15.10;99.90;;;;;;4893394;29;19912;-57
2022/06/08 00:47:21;;;;;;;;;;;15.00;99.90;;;;;;4889464;29;19934;-58
2022/06/08 00:49:53;;;;;;;;;;;15.00;99.90;;;;;;4893714;29;20326;-58
2022/06/08 00:52:19;;;;;;;;;;;15.00;99.90;;;;;;4892811;29;19937;-57
2022/06/08 00:54:48;;;;;;;;;;;15.00;99.90;;;;;;4893600;29;20368;-58
2022/06/08 00:57:16;;;;;;;;;;;15.00;99.90;;;;;;4891687;29;19911;-57
2022/06/08 00:59:45;;;;;;;;;;;15.00;99.90;;;;;;4893371;29;19919;-58
2022/06/08 01:02:11;;;;;;;;;;;15.00;99.90;;;;;;4892639;29;19920;-57
2022/06/08 01:04:36;;;;;;;;;;;15.10;99.90;;;;;;4891154;29;19928;-57
2022/06/08 01:07:03;;;;;;;;;;;15.10;99.90;;;;;;4892606;29;19912;-57
2022/06/08 01:09:32;;;;;;;;;;;14.90;99.90;;;;;;4894337;29;19912;-58
2022/06/08 01:11:59;;;;;;;;;;;14.90;99.90;;;;;;4875059;29;19947;-58
2022/06/08 01:14:26;;;;;;;;;;;14.80;99.90;;;;;;4894251;29;19998;-58
2022/06/08 01:17:10;;;;;;;;;;;14.70;99.90;;;;;;4894897;29;19967;-57
2022/06/08 01:19:36;;;;;;;;;;;14.70;99.90;;;;;;4891160;29;19911;-57
2022/06/08 01:22:03;;;;;;;;;;;14.70;99.90;;;;;;4892664;29;20304;-57
2022/06/08 01:24:28;;;;;;;;;;;14.80;99.90;;;;;;4892984;29;19986;-57
2022/06/08 01:27:02;;;;;;;;;;;14.80;99.90;;;;;;4892948;29;19994;-58
2022/06/08 01:29:29;;;;;;;;;;;14.80;99.90;;;;;;4890261;29;19911;-57
2022/06/08 01:31:54;;;;;;;;;;;14.90;99.90;;;;;;4892809;29;19922;-58
2022/06/08 01:34:39;;;;;;;;;;;15.00;99.90;;;;;;4890374;29;20699;-57
2022/06/08 01:37:15;;;;;;;;;;;15.00;99.90;;;;;;4887992;29;19918;-57
2022/06/08 01:39:47;;;;;;;;;;;15.00;99.90;;;;;;4892736;29;19998;-57
2022/06/08 01:42:33;;;;;;;;;;;15.00;99.90;;;;;;4892018;29;19915;-57
2022/06/08 01:45:29;;;;;;;;;;;15.00;99.90;;;;;;4892292;29;19911;-57
2022/06/08 01:47:54;;;;;;;;;;;15.00;99.90;;;;;;4891896;29;20684;-57
2022/06/08 01:50:41;;;;;;;;;;;15.00;99.90;;;;;;4893437;29;20013;-57
2022/06/08 01:53:25;;;;;;;;;;;15.00;99.90;;;;;;4894214;29;19907;-57
2022/06/08 01:55:55;;;;;;;;;;;14.90;99.90;;;;;;4891497;29;20649;-57
2022/06/08 01:58:24;;;;;;;;;;;14.90;99.90;;;;;;4891560;29;19979;-58
2022/06/08 02:00:55;;;;;;;;;;;14.80;99.90;;;;;;4890274;29;19917;-57
2022/06/08 02:03:21;;;;;;;;;;;14.70;99.90;;;;;;4891942;29;20009;-57
2022/06/08 02:06:03;;;;;;;;;;;14.70;99.90;;;;;;4890363;29;20026;-58
2022/06/08 02:08:47;;;;;;;;;;;14.70;99.90;;;;;;4889270;29;19922;-58
2022/06/08 02:11:19;;;;;;;;;;;14.60;99.90;;;;;;4891516;29;19994;-57
2022/06/08 02:14:02;;;;;;;;;;;14.60;99.90;;;;;;4891891;29;20280;-57
2022/06/08 02:16:37;;;;;;;;;;;14.50;99.90;;;;;;4891285;29;19911;-57
2022/06/08 02:19:11;;;;;;;;;;;14.60;99.90;;;;;;4891588;29;19922;-57
2022/06/08 02:21:42;;;;;;;;;;;14.50;99.90;;;;;;4892253;29;20455;-57
2022/06/08 02:24:15;;;;;;;;;;;14.50;99.90;;;;;;4888574;29;19919;-58
2022/06/08 02:26:47;;;;;;;;;;;14.40;99.90;;;;;;4891864;29;19919;-57
2022/06/08 02:29:14;;;;;;;;;;;14.40;99.90;;;;;;4891168;29;19919;-57
2022/06/08 02:31:43;;;;;;;;;;;14.40;99.90;;;;;;4894025;29;20054;-58
2022/06/08 02:34:33;;;;;;;;;;;14.20;99.90;;;;;;4893562;29;19998;-57
2022/06/08 02:37:06;;;;;;;;;;;14.20;99.90;;;;;;4889152;29;20467;-57
2022/06/08 02:39:35;;;;;;;;;;;14.30;99.90;;;;;;4891202;29;20580;-57
2022/06/08 02:42:06;;;;;;;;;;;14.10;99.90;;;;;;4892407;29;19922;-56
2022/06/08 02:44:33;;;;;;;;;;;14.20;99.90;;;;;;4889281;29;19911;-58
2022/06/08 02:47:14;;;;;;;;;;;14.00;99.90;;;;;;4891444;29;19911;-57
2022/06/08 02:49:40;;;;;;;;;;;14.00;99.90;;;;;;4889191;29;19911;-57
2022/06/08 02:52:21;;;;;;;;;;;13.90;99.90;;;;;;4891010;29;19912;-57
2022/06/08 02:54:47;;;;;;;;;;;14.00;99.90;;;;;;4891146;29;19915;-57
2022/06/08 02:57:20;;;;;;;;;;;14.10;99.90;;;;;;4890940;29;19911;-57
2022/06/08 02:59:49;;;;;;;;;;;14.10;99.90;;;;;;4888531;29;19915;-57
2022/06/08 03:02:24;;;;;;;;;;;13.90;99.90;;;;;;4890369;29;19925;-57
2022/06/08 03:04:53;;;;;;;;;;;13.90;99.90;;;;;;4888852;29;20384;-58
2022/06/08 03:07:23;;;;;;;;;;;13.90;99.90;;;;;;4890526;29;19991;-57
2022/06/08 03:09:48;;;;;;;;;;;13.90;99.90;;;;;;4890621;29;20055;-57
2022/06/08 03:12:22;;;;;;;;;;;14.00;99.90;;;;;;4891690;29;19954;-58
2022/06/08 03:14:48;;;;;;;;;;;14.00;99.90;;;;;;4893207;29;19907;-57
2022/06/08 03:17:15;;;;;;;;;;;14.10;99.90;;;;;;4890379;29;20356;-57
2022/06/08 03:19:41;;;;;;;;;;;14.10;99.90;;;;;;4890274;29;19911;-57
2022/06/08 03:22:06;;;;;;;;;;;14.10;99.90;;;;;;4890767;29;19962;-57
2022/06/08 03:24:32;;;;;;;;;;;14.10;99.90;;;;;;4889767;29;20436;-57
2022/06/08 03:26:59;;;;;;;;;;;14.10;99.90;;;;;;4889827;29;19911;-57
2022/06/08 03:29:26;;;;;;;;;;;14.10;99.90;;;;;;4890405;29;19916;-57
2022/06/08 03:31:52;;;;;;;;;;;14.00;99.90;;;;;;4890930;29;20049;-57
2022/06/08 03:34:17;;;;;;;;;;;14.00;99.90;;;;;;4888628;29;20821;-57
2022/06/08 03:36:43;;;;;;;;;;;14.10;99.90;;;;;;4891237;29;19911;-58
2022/06/08 03:39:09;;;;;;;;;;;14.10;99.90;;;;;;4890327;29;20085;-57
2022/06/08 03:41:35;;;;;;;;;;;14.00;99.90;;;;;;4890997;29;19967;-58
2022/06/08 03:44:01;;;;;;;;;;;14.10;99.90;;;;;;4891013;29;19919;-57
2022/06/08 03:46:28;;;;;;;;;;;14.10;99.90;;;;;;4888837;29;20615;-57
2022/06/08 03:48:55;;;;;;;;;;;14.10;99.90;;;;;;4890644;29;19911;-56
2022/06/08 03:51:21;;;;;;;;;;;14.20;99.90;;;;;;4890520;29;19963;-57
2022/06/08 03:53:52;;;;;;;;;;;14.20;99.90;;;;;;4893319;29;20379;-57
2022/06/08 03:56:18;;;;;;;;;;;14.20;99.90;;;;;;4891944;29;19937;-57
2022/06/08 03:58:44;;;;;;;;;;;14.30;99.90;;;;;;4890820;29;19998;-57
2022/06/08 04:01:09;;;;;;;;;;;14.30;99.90;;;;;;4893118;29;20030;-57
2022/06/08 04:03:35;;;;;;;;;;;14.30;99.90;;;;;;4894809;29;20325;-57
2022/06/08 04:06:00;;;;;;;;;;;14.30;99.90;;;;;;4892607;29;19973;-57
2022/06/08 04:08:26;;;;;;;;;;;14.40;99.90;;;;;;4889960;29;19959;-57
2022/06/08 04:10:52;;;;;;;;;;;14.40;99.90;;;;;;4894079;29;19911;-57
2022/06/08 04:13:18;;;;;;;;;;;14.50;99.90;;;;;;4893579;29;19915;-57
2022/06/08 04:15:43;;;;;;;;;;;14.60;99.90;;;;;;4894136;29;19946;-58
2022/06/08 04:18:19;;;;;;;;;;;14.60;99.90;;;;;;4894057;29;19988;-57
2022/06/08 04:20:46;;;;;;;;;;;14.60;99.90;;;;;;4893964;29;19947;-57
2022/06/08 04:23:12;;;;;;;;;;;14.70;99.90;;;;;;4892262;29;19915;-57
2022/06/08 04:25:39;;;;;;;;;;;14.70;99.90;;;;;;4893765;29;19988;-57
2022/06/08 04:28:04;;;;;;;;;;;14.80;99.90;;;;;;4893706;29;19912;-57
2022/06/08 04:30:31;;;;;;;;;;;14.90;99.90;;;;;;4893615;29;19948;-57
2022/06/08 04:32:57;;;;;;;;;;;14.90;99.90;;;;;;4895525;29;19953;-57
2022/06/08 04:35:23;;;;;;;;;;;15.00;99.90;;;;;;4893990;29;19950;-57
2022/06/08 04:37:49;;;;;;;;;;;15.00;99.90;;;;;;4894636;29;20131;-57
2022/06/08 04:40:15;;;;;;;;;;;15.10;99.90;;;;;;4893248;29;19940;-57
2022/06/08 04:42:40;;;;;;;;;;;15.00;99.90;;;;;;4895204;29;20277;-57
2022/06/08 04:45:06;;;;;;;;;;;15.00;99.90;;;;;;4893635;29;19915;-57
2022/06/08 04:47:32;;;;;;;;;;;15.00;99.90;;;;;;4893376;29;19911;-57
2022/06/08 04:49:57;;;;;;;;;;;15.00;99.90;;;;;;4892407;29;20387;-57
2022/06/08 04:52:23;;;;;;;;;;;15.00;99.90;;;;;;4893135;29;19911;-57
2022/06/08 04:54:49;;;;;;;;;;;15.00;99.90;;;;;;4893303;29;19954;-56
2022/06/08 04:57:15;;;;;;;;;;;15.00;99.90;;;;;;4893077;29;20423;-57
2022/06/08 04:59:40;;;;;;;;;;;14.90;99.90;;;;;;4893362;29;19911;-56
2022/06/08 05:02:06;;;;;;;;;;;15.00;99.90;;;;;;4875975;29;19951;-58
2022/06/08 05:04:32;;;;;;;;;;;15.00;99.90;;;;;;4890823;29;19938;-57
2022/06/08 05:06:58;;;;;;;;;;;15.00;99.90;;;;;;4893455;29;19918;-57
2022/06/08 05:09:23;;;;;;;;;;;15.00;99.90;;;;;;4892579;29;19998;-57
2022/06/08 05:11:49;;;;;;;;;;;15.10;99.90;;;;;;4891826;29;19915;-57
2022/06/08 05:14:14;;;;;;;;;;;15.20;99.90;;;;;;4894935;29;19943;-57
2022/06/08 05:16:40;;;;;;;;;;;15.20;99.90;;;;;;4895652;29;19974;-57
2022/06/08 05:19:05;;;;;;;;;;;15.30;99.90;;;;;;4893802;29;19938;-57
2022/06/08 05:21:31;;;;;;;;;;;15.40;99.90;;;;;;4892241;29;20395;-57
2022/06/08 05:23:56;;;;;;;;;;;15.40;99.90;;;;;;4894655;29;19911;-57
2022/06/08 05:26:22;;;;;;;;;;;15.50;99.90;;;;;;4892329;29;19911;-57
2022/06/08 05:28:47;;;;;;;;;;;15.60;99.90;;;;;;4892951;29;20336;-57
2022/06/08 05:31:13;;;;;;;;;;;15.60;99.90;;;;;;4892219;29;19911;-56
2022/06/08 05:33:38;;;;;;;;;;;15.70;99.90;;;;;;4893057;29;19923;-57
2022/06/08 05:36:04;;;;;;;;;;;15.80;99.90;;;;;;4890771;29;19915;-57
2022/06/08 05:38:30;;;;;;;;;;;16.00;99.90;;;;;;4892286;29;19918;-57
2022/06/08 05:40:56;;;;;;;;;;;16.10;99.90;;;;;;4892431;29;19911;-57
2022/06/08 05:43:22;;;;;;;;;;;16.00;99.90;;;;;;4891995;29;19915;-57
2022/06/08 05:45:47;;;;;;;;;;;16.00;99.90;;;;;;4892700;29;19911;-57
2022/06/08 05:48:14;;;;;;;;;;;15.90;99.90;;;;;;4891891;29;19911;-57
2022/06/08 05:50:40;;;;;;;;;;;15.90;99.90;;;;;;4892297;29;20034;-57
2022/06/08 05:53:06;;;;;;;;;;;16.00;99.90;;;;;;4892845;29;19907;-57
2022/06/08 05:55:32;;;;;;;;;;;16.10;99.90;;;;;;4894411;29;20295;-57
2022/06/08 05:57:58;;;;;;;;;;;16.30;99.90;;;;;;4894782;29;19911;-57
2022/06/08 06:00:25;;;;;;;;;;;16.40;99.90;;;;;;4891862;29;19950;-57
2022/06/08 06:02:51;;;;;;;;;;;16.50;99.90;;;;;;4888956;29;20088;-57
2022/06/08 06:05:18;;;;;;;;;;;16.60;99.90;;;;;;4890878;29;20014;-57
2022/06/08 06:07:45;;;;;;;;;;;16.60;99.90;;;;;;4892007;29;20364;-57
2022/06/08 06:10:11;;;;;;;;;;;16.50;99.90;;;;;;4881897;29;20342;-56
2022/06/08 06:12:36;;;;;;;;;;;16.60;99.90;;;;;;4892336;29;20035;-57
2022/06/08 06:15:02;;;;;;;;;;;16.80;99.90;;;;;;4891912;29;19934;-57
2022/06/08 06:17:28;;;;;;;;;;;17.00;99.90;;;;;;4894589;29;19941;-56
2022/06/08 06:19:54;;;;;;;;;;;17.10;99.90;;;;;;4888644;29;19912;-56
2022/06/08 06:22:19;;;;;;;;;;;17.30;99.90;;;;;;4890696;29;20006;-57
2022/06/08 06:24:45;;;;;;;;;;;17.40;99.90;;;;;;4891652;29;20010;-57
2022/06/08 06:27:10;;;;;;;;;;;17.40;99.90;;;;;;4891831;29;19911;-57
2022/06/08 06:29:36;;;;;;;;;;;17.50;99.90;;;;;;4891589;29;19919;-58
2022/06/08 06:32:04;;;;;;;;;;;17.90;99.90;;;;;;4891756;29;20014;-57
2022/06/08 06:34:29;;;;;;;;;;;18.10;99.90;;;;;;4873901;29;19973;-57
2022/06/08 06:36:55;;;;;;;;;;;18.20;99.90;;;;;;4894440;29;19987;-57
2022/06/08 06:39:22;;;;;;;;;;;18.00;99.90;;;;;;4888974;29;19912;-57
2022/06/08 06:41:48;;;;;;;;;;;17.80;99.90;;;;;;4891438;29;19916;-56
2022/06/08 06:44:14;;;;;;;;;;;17.90;99.90;;;;;;4892066;29;20158;-57
2022/06/08 06:46:39;;;;;;;;;;;17.80;99.90;;;;;;4891985;29;20043;-58
2022/06/08 06:49:05;;;;;;;;;;;17.90;99.90;;;;;;4891809;29;20355;-57
2022/06/08 06:51:30;;;;;;;;;;;17.90;99.90;;;;;;4890740;29;19911;-57
2022/06/08 06:53:56;;;;;;;;;;;18.00;99.90;;;;;;4891492;29;19919;-57
2022/06/08 06:56:21;;;;;;;;;;;18.10;99.90;;;;;;4890693;29;19915;-57
2022/06/08 06:58:48;;;;;;;;;;;18.20;99.90;;;;;;4891544;29;20038;-57
2022/06/08 07:01:15;;;;;;;;;;;18.30;99.90;;;;;;4890765;29;19911;-56
2022/06/08 07:03:40;;;;;;;;;;;18.40;99.90;;;;;;4891393;29;19911;-57
2022/06/08 07:06:06;;;;;;;;;;;18.30;99.90;;;;;;4889469;29;19915;-57
2022/06/08 07:08:31;;;;;;;;;;;18.00;99.90;;;;;;4890639;29;19922;-57
2022/06/08 07:13:41;;;;;;;;;;;18.20;99.90;;;;;;4888836;29;19978;-57
2022/06/08 07:16:07;;;;;;;;;;;18.30;99.90;;;;;;4893880;29;19911;-57
2022/06/08 07:18:32;;;;;;;;;;;18.30;99.90;;;;;;4893339;29;19923;-57
2022/06/08 07:20:58;;;;;;;;;;;18.50;99.90;;;;;;4891489;29;19911;-57
2022/06/08 07:23:23;;;;;;;;;;;18.50;99.90;;;;;;4890375;29;19927;-57
2022/06/08 07:25:49;;;;;;;;;;;18.70;99.90;;;;;;4892470;29;20347;-57
2022/06/08 07:28:15;;;;;;;;;;;18.80;99.90;;;;;;4890772;29;20408;-56
2022/06/08 07:30:40;;;;;;;;;;;19.00;99.90;;;;;;4891241;29;20047;-57
2022/06/08 07:33:06;;;;;;;;;;;18.90;99.90;;;;;;4890620;29;20001;-57
2022/06/08 07:35:31;;;;;;;;;;;19.10;99.90;;;;;;4890465;29;20459;-57
2022/06/08 07:37:57;;;;;;;;;;;19.20;99.90;;;;;;4895134;29;19916;-57
2022/06/08 07:40:22;;;;;;;;;;;19.60;99.90;;;;;;4894125;29;19918;-58
2022/06/08 07:42:48;;;;;;;;;;;19.50;99.90;;;;;;4894822;29;20291;-57
2022/06/08 07:45:13;;;;;;;;;;;19.70;99.90;;;;;;4894837;29;19923;-57
2022/06/08 07:50:24;;;;;;;;;;;19.90;99.90;;;;;;4893417;29;20478;-57
2022/06/08 07:52:49;;;;;;;;;;;20.00;99.90;;;;;;4894399;29;19919;-57
2022/06/08 07:55:15;;;;;;;;;;;20.30;99.90;;;;;;4895071;29;19907;-57
2022/06/08 07:57:40;;;;;;;;;;;20.60;99.90;;;;;;4896610;29;20283;-57
2022/06/08 08:00:06;;;;;;;;;;;20.80;99.90;;;;;;4896179;29;20492;-57
2022/06/08 08:02:32;;;;;;;;;;;20.90;99.90;;;;;;4893530;29;19915;-57
2022/06/08 08:04:57;;;;;;;;;;;21.00;99.90;;;;;;4892421;29;19927;-57
2022/06/08 08:07:23;;;;;;;;;;;21.30;99.90;;;;;;4894678;29;19916;-57
2022/06/08 08:09:49;;;;;;;;;;;21.80;99.90;;;;;;4893979;29;19994;-57
2022/06/08 08:12:15;;;;;;;;;;;22.20;99.90;;;;;;4893986;29;19954;-57
2022/06/08 08:14:40;;;;;;;;;;;22.10;99.90;;;;;;4893404;29;19971;-57
2022/06/08 08:17:06;;;;;;;;;;;22.10;99.90;;;;;;4894280;29;19918;-57
2022/06/08 08:19:38;;;;;;;;;;;21.90;99.90;;;;;;4893210;29;20001;-57
2022/06/08 08:22:04;;;;;;;;;;;21.60;99.90;;;;;;4893740;29;19919;-57
2022/06/08 08:24:31;;;;;;;;;;;21.70;99.90;;;;;;4893032;29;19915;-57
2022/06/08 08:26:56;;;;;;;;;;;21.60;99.90;;;;;;4893615;29;19912;-58
2022/06/08 08:29:22;;;;;;;;;;;21.80;99.90;;;;;;4893206;29;19915;-57
2022/06/08 08:31:48;;;;;;;;;;;22.00;99.90;;;;;;4893811;29;19915;-56
2022/06/08 08:34:14;;;;;;;;;;;;;;;;;;4893338;29;19967;-57
2022/06/08 08:36:39;;;;;;;;;;;22.60;99.90;;;;;;4893939;29;19963;-57
2022/06/08 08:39:05;;;;;;;;;;;22.50;99.90;;;;;;4895892;29;19911;-57
2022/06/08 08:44:26;;;;;;;;;;;22.50;99.90;;;;;;4893473;29;19918;-57
2022/06/08 08:47:10;;;;;;;;;;;22.70;99.90;;;;;;4894193;29;19915;-57
2022/06/08 08:49:39;;;;;;;;;;;23.00;99.90;;;;;;4890921;29;19915;-57
2022/06/08 08:52:13;;;;;;;;;;;22.90;99.90;;;;;;4870240;29;20031;-57
2022/06/08 08:54:39;;;;;;;;;;;22.80;99.90;;;;;;4889016;29;20308;-57
2022/06/08 08:57:11;;;;;;;;;;;22.40;99.90;;;;;;4893062;29;20284;-57
2022/06/08 08:59:36;;;;;;;;;;;22.20;99.90;;;;;;4892458;29;19937;-57
2022/06/08 09:02:02;;;;;;;;;;;22.00;99.90;;;;;;4892812;29;19919;-57
2022/06/08 09:04:33;;;;;;;;;;;22.20;99.90;;;;;;4890628;29;19975;-58
2022/06/08 09:07:17;;;;;;;;;;;22.90;99.90;;;;;;4889862;29;20459;-57
2022/06/08 09:09:43;;;;;;;;;;;23.40;99.90;;;;;;4892223;29;19959;-58
2022/06/08 09:12:13;;;;;;;;;;;23.80;99.90;;;;;;4893004;29;19911;-57
2022/06/08 09:14:47;;;;;;;;;;;23.70;99.90;;;;;;4892066;29;19971;-57
2022/06/08 09:17:15;;;;;;;;;;;23.50;99.90;;;;;;4896198;29;19943;-57
2022/06/08 09:19:46;;;;;;;;;;;24.20;99.90;;;;;;4894489;29;19966;-57
2022/06/08 09:22:13;;;;;;;;;;;24.90;99.90;;;;;;4890772;29;20078;-58
2022/06/08 09:24:41;;;;;;;;;;;24.40;99.90;;;;;;4892097;29;20431;-58
2022/06/08 09:27:22;;;;;;;;;;;24.20;99.90;;;;;;4893593;29;19919;-57
2022/06/08 09:29:54;;;;;;;;;;;24.00;99.90;;;;;;4889764;29;19994;-57
2022/06/08 09:32:33;;;;;;;;;;;23.60;99.90;;;;;;4892690;29;19916;-58
2022/06/08 09:35:16;;;;;;;;;;;23.90;99.90;;;;;;4890370;29;19915;-57
2022/06/08 09:37:42;;;;;;;;;;;23.40;99.90;;;;;;4891775;29;19964;-58
2022/06/08 09:40:36;;;;;;;;;;;23.30;99.90;;;;;;4892297;29;20340;-57
2022/06/08 09:43:18;;;;;;;;;;;23.70;99.90;;;;;;4889045;29;19951;-58
2022/06/08 09:45:59;;;;;;;;;;;24.60;99.60;;;;;;4891909;29;20018;-58
2022/06/08 09:51:27;;;;;;;;;;;24.30;99.20;;;;;;4890569;29;19918;-57
2022/06/08 09:54:11;;;;;;;;;;;23.40;99.90;;;;;;4892027;29;19911;-57
2022/06/08 09:56:43;;;;;;;;;;;23.00;99.90;;;;;;4891244;29;20622;-57
2022/06/08 09:59:27;;;;;;;;;;;22.90;99.90;;;;;;4890418;29;20319;-58
2022/06/08 10:01:58;;;;;;;;;;;22.70;99.90;;;;;;4894053;29;19927;-58
2022/06/08 10:04:48;;;;;;;;;;;22.70;99.90;;;;;;4886230;29;20300;-57
2022/06/08 10:07:19;;;;;;;;;;;23.00;99.90;;;;;;4892681;29;19950;-57
2022/06/08 10:09:58;;;;;;;;;;;22.70;99.90;;;;;;4890514;29;20001;-57
2022/06/08 10:12:45;;;;;;;;;;;22.90;99.90;;;;;;4891420;29;20434;-57
2022/06/08 10:15:26;;;;;;;;;;;23.50;99.00;;;;;;4891400;29;19919;-58
2022/06/08 10:18:05;;;;;;;;;;;24.30;98.60;;;;;;4888389;29;19918;-57
2022/06/08 10:20:36;;;;;;;;;;;25.40;95.40;;;;;;4891076;29;19911;-57
2022/06/08 10:23:07;;;;;;;;;;;25.20;95.30;;;;;;4888189;29;20379;-57
2022/06/08 10:25:40;;;;;;;;;;;24.60;95.70;;;;;;4890995;29;19915;-57
2022/06/08 10:28:09;;;;;;;;;;;23.80;97.60;;;;;;4891575;29;19918;-57
2022/06/08 10:30:38;;;;;;;;;;;23.40;98.40;;;;;;4890968;29;19911;-57
2022/06/08 10:33:19;;;;;;;;;;;23.30;98.70;;;;;;4891460;29;19911;-59
2022/06/08 10:35:49;;;;;;;;;;;23.20;99.80;;;;;;4885910;29;19919;-57
2022/06/08 10:38:20;;;;;;;;;;;23.20;99.40;;;;;;4892444;29;19907;-57
2022/06/08 10:42:39;;;;;;;;;;;23.40;97.60;;;;;;4892982;29;19908;-56
2022/06/08 10:43:51;;;;;;;;;;;23.70;98.20;;;;;;4890360;29;19922;-57
2022/06/08 10:46:32;;;;;;;;;;;24.00;97.20;;;;;;4891181;29;19915;-58
2022/06/08 10:48:57;;;;;;;;;;;23.70;96.10;;;;;;4892349;29;19907;-57
2022/06/08 10:51:26;;;;;;;;;;;23.70;97.50;;;;;;4891053;29;20352;-57
2022/06/08 10:56:38;;;;;;;;;;;23.90;96.70;;;;;;4887711;29;19917;-57
2022/06/08 10:59:03;;;;;;;;;;;23.90;97.00;;;;;;4891099;29;19995;-57
2022/06/08 11:01:47;;;;;;;;;;;23.80;95.10;;;;;;4890156;29;19915;-57
2022/06/08 11:04:31;;;;;;;;;;;24.10;94.60;;;;;;4887544;29;19927;-57
2022/06/08 11:07:01;;;;;;;;;;;24.40;94.90;;;;;;4890956;29;19954;-58
2022/06/08 11:09:36;;;;;;;;;;;24.60;95.40;;;;;;4871959;29;20391;-57
2022/06/08 11:12:01;;;;;;;;;;;24.90;93.70;;;;;;4890581;29;20007;-57
2022/06/08 11:14:31;;;;;;;;;;;25.00;94.50;;;;;;4890214;29;20648;-57
2022/06/08 11:17:00;;;;;;;;;;;24.70;94.50;;;;;;4892989;29;19911;-57
2022/06/08 11:19:26;;;;;;;;;;;24.60;94.40;;;;;;4892309;29;19914;-57
2022/06/08 11:22:00;;;;;;;;;;;24.60;95.20;;;;;;4893251;29;19911;-57
2022/06/08 11:24:30;;;;;;;;;;;24.20;95.70;;;;;;4891479;29;19979;-57
2022/06/08 11:27:10;;;;;;;;;;;24.00;96.60;;;;;;4890666;29;20454;-57
2022/06/08 11:29:42;;;;;;;;;;;23.40;96.90;;;;;;4891440;29;19911;-57
2022/06/08 11:32:20;;;;;;;;;;;23.00;99.30;;;;;;4890635;29;19916;-56
2022/06/08 11:35:08;;;;;;;;;;;22.50;99.40;;;;;;4888144;29;19919;-57
2022/06/08 11:37:39;;;;;;;;;;;22.20;99.90;;;;;;4887986;29;19970;-57
2022/06/08 11:40:25;;;;;;;;;;;21.90;99.90;;;;;;4890592;29;19911;-57
2022/06/08 11:42:53;;;;;;;;;;;20.70;99.90;;;;;;4888013;29;19946;-57
2022/06/08 11:45:20;;;;;;;;;;;19.40;99.90;;;;;;4890696;29;20364;-57
2022/06/08 11:47:49;;;;;;;;;;;19.10;99.90;;;;;;4890186;29;19922;-57
2022/06/08 11:50:21;;;;;;;;;;;18.90;99.90;;;;;;4890546;29;19922;-57
2022/06/08 11:52:47;;;;;;;;;;;18.80;99.90;;;;;;4890283;29;19969;-56
2022/06/08 11:55:15;;;;;;;;;;;18.80;99.90;;;;;;4890546;29;20580;-57
2022/06/08 11:57:49;;;;;;;;;;;18.70;99.90;;;;;;4890049;29;19918;-57
2022/06/08 12:00:21;;;;;;;;;;;18.60;99.90;;;;;;4891112;29;19907;-57
2022/06/08 12:02:48;;;;;;;;;;;18.40;99.90;;;;;;4892827;29;19942;-57
2022/06/08 12:05:19;;;;;;;;;;;18.30;99.90;;;;;;4889548;29;20300;-57
2022/06/08 12:07:45;;;;;;;;;;;18.20;99.90;;;;;;4890484;29;20463;-57
2022/06/08 12:10:13;;;;;;;;;;;18.10;99.90;;;;;;4891916;29;19908;-56
2022/06/08 12:12:41;;;;;;;;;;;18.10;99.90;;;;;;4889971;29;19911;-56
2022/06/08 12:15:24;;;;;;;;;;;18.10;99.90;;;;;;4890341;29;19982;-57
2022/06/08 12:17:50;;;;;;;;;;;18.10;99.90;;;;;;4889634;29;19953;-57
2022/06/08 12:20:34;;;;;;;;;;;18.20;99.90;;;;;;4890681;29;19951;-56
2022/06/08 12:23:00;;;;;;;;;;;18.20;99.90;;;;;;4894240;29;20245;-57
2022/06/08 12:25:28;;;;;;;;;;;18.20;99.90;;;;;;4894123;29;20047;-57
2022/06/08 12:27:55;;;;;;;;;;;18.10;99.90;;;;;;4893807;29;20297;-57
2022/06/08 12:30:22;;;;;;;;;;;18.20;99.90;;;;;;4893849;29;20316;-57
2022/06/08 12:33:14;;;;;;;;;;;18.20;99.90;;;;;;4893352;29;19915;-57
2022/06/08 12:35:51;;;;;;;;;;;18.20;99.90;;;;;;4888699;29;20665;-57
2022/06/08 12:38:21;;;;;;;;;;;18.10;99.90;;;;;;4891301;29;20063;-57
2022/06/08 12:41:07;;;;;;;;;;;17.80;99.90;;;;;;4894712;29;20383;-57
2022/06/08 12:43:39;;;;;;;;;;;17.40;99.90;;;;;;4893310;29;19967;-57
2022/06/08 12:46:04;;;;;;;;;;;16.60;99.90;;;;;;4894395;29;20294;-57
2022/06/08 12:48:36;;;;;;;;;;;16.10;99.90;;;;;;4893828;29;19912;-58
2022/06/08 12:51:21;;;;;;;;;;;15.70;99.90;;;;;;4894607;29;19967;-57
2022/06/08 12:53:47;;;;;;;;;;;15.50;99.90;;;;;;4893044;29;20403;-58
2022/06/08 12:56:13;;;;;;;;;;;15.50;99.90;;;;;;4893323;29;19912;-58
2022/06/08 12:58:38;;;;;;;;;;;15.60;99.90;;;;;;4893169;29;20022;-58
2022/06/08 13:01:04;;;;;;;;;;;15.70;99.90;;;;;;4893241;29;19911;-57
2022/06/08 13:03:29;;;;;;;;;;;15.90;99.90;;;;;;4893950;29;19915;-58
2022/06/08 13:05:56;;;;;;;;;;;16.00;99.90;;;;;;4873905;29;20001;-58
2022/06/08 13:08:23;;;;;;;;;;;16.00;99.90;;;;;;4893443;29;20360;-58
2022/06/08 13:10:50;;;;;;;;;;;16.20;99.90;;;;;;4892379;29;19994;-58
2022/06/08 13:13:20;;;;;;;;;;;16.40;99.90;;;;;;4889638;29;20352;-58
2022/06/08 13:15:47;;;;;;;;;;;16.50;99.90;;;;;;4892505;29;19929;-58
2022/06/08 13:18:23;;;;;;;;;;;16.50;99.90;;;;;;4895927;29;19933;-58
2022/06/08 13:20:49;;;;;;;;;;;16.50;99.90;;;;;;4893536;29;19963;-58
2022/06/08 13:23:15;;;;;;;;;;;16.60;99.90;;;;;;4895678;29;19912;-58
2022/06/08 13:25:42;;;;;;;;;;;16.70;99.90;;;;;;4893846;29;19927;-58
2022/06/08 13:28:15;;;;;;;;;;;16.60;99.90;;;;;;4893039;29;19986;-58
2022/06/08 13:30:42;;;;;;;;;;;16.60;99.90;;;;;;4893472;29;19963;-57
2022/06/08 13:33:56;;;;;;;;;;;16.60;99.90;;;;;;4892222;29;19922;-58
2022/06/08 13:35:54;;;;;;;;;;;16.70;99.90;;;;;;4890311;29;19915;-58
2022/06/08 13:38:20;;;;;;;;;;;16.80;99.90;;;;;;4891253;29;19934;-58
2022/06/08 13:40:46;;;;;;;;;;;16.80;99.90;;;;;;4890846;29;19951;-58
2022/06/08 13:43:11;;;;;;;;;;;16.90;99.90;;;;;;4892619;29;19944;-58
2022/06/08 13:45:40;;;;;;;;;;;17.10;99.90;;;;;;4891923;29;19975;-57
2022/06/08 13:48:07;;;;;;;;;;;17.00;99.90;;;;;;4892587;29;20288;-58
2022/06/08 13:50:37;;;;;;;;;;;16.90;99.90;;;;;;4892553;29;19911;-58
2022/06/08 13:53:05;;;;;;;;;;;16.90;99.90;;;;;;4892481;29;19907;-57
2022/06/08 13:55:33;;;;;;;;;;;16.80;99.90;;;;;;4892227;29;19971;-58
2022/06/08 13:58:01;;;;;;;;;;;16.80;99.90;;;;;;4892266;29;19963;-58
2022/06/08 14:00:27;;;;;;;;;;;16.90;99.90;;;;;;4892362;29;19938;-58
2022/06/08 14:02:53;;;;;;;;;;;16.90;99.90;;;;;;4894133;29;19975;-58
2022/06/08 14:05:23;;;;;;;;;;;17.00;99.90;;;;;;4893065;29;19931;-57
2022/06/08 14:13:19;;;;;;;;;;;17.00;99.90;;;;;;4893139;29;20037;-57
2022/06/08 14:15:45;;;;;;;;;;;17.00;99.90;;;;;;4891761;29;19997;-58
2022/06/08 14:18:14;;;;;;;;;;;17.00;99.90;;;;;;4893352;29;19911;-57
2022/06/08 14:20:39;;;;;;;;;;;17.10;99.90;;;;;;4884450;29;20009;-57
2022/06/08 14:23:09;;;;;;;;;;;17.10;99.90;;;;;;4892075;29;20431;-58
2022/06/08 14:25:34;;;;;;;;;;;16.90;99.90;;;;;;4891825;29;19911;-58
2022/06/08 14:28:00;;;;;;;;;;;17.00;99.90;;;;;;4891231;29;19915;-57
2022/06/08 14:30:25;;;;;;;;;;;16.90;99.90;;;;;;4891907;29;19911;-57
2022/06/08 14:32:53;;;;;;;;;;;16.90;99.90;;;;;;4891089;29;19915;-57
2022/06/08 14:35:21;;;;;;;;;;;17.10;99.90;;;;;;4889980;29;19915;-57
2022/06/08 14:37:47;;;;;;;;;;;17.20;99.90;;;;;;4890951;29;19923;-57
2022/06/08 14:40:23;;;;;;;;;;;17.30;99.90;;;;;;4891571;29;19911;-57
2022/06/08 14:42:49;;;;;;;;;;;17.20;99.90;;;;;;4889782;29;19946;-58
2022/06/08 14:45:14;;;;;;;;;;;17.30;99.90;;;;;;4893813;29;19950;-57
2022/06/08 14:47:40;;;;;;;;;;;17.40;99.90;;;;;;4891311;29;19931;-57
2022/06/08 14:50:08;;;;;;;;;;;17.60;99.90;;;;;;4891510;29;19915;-57